createdAt,value
2023-04-17T00:08:29.208Z,100892.07
2023-04-17T00:23:22.114Z,100880.64
2023-04-17T00:38:14.232Z,100870.41
2023-04-17T00:53:05.564Z,100866.99
2023-04-17T01:07:57.279Z,100857.06
2023-04-17T01:22:50.905Z,100855.15
2023-04-17T01:37:45.540Z,100856.09
2023-04-17T01:52:38.679Z,100860.63
2023-04-17T02:07:31.181Z,100858.69
2023-04-17T02:22:23.135Z,100852.56
2023-04-17T02:37:14.492Z,100859.64
2023-04-17T02:52:08.443Z,100856.23
2023-04-17T03:07:01.948Z,100857.05
2023-04-17T03:22:08.383Z,100857.98
2023-04-17T03:37:03.992Z,100862.30
2023-04-17T03:51:56.078Z,100870.92
2023-04-17T04:06:48.194Z,100869.66
2023-04-17T04:21:39.928Z,100885.88
2023-04-17T04:36:31.257Z,100895.86
2023-04-17T04:51:23.339Z,100903.87
2023-04-17T05:06:15.456Z,100902.14
2023-04-17T05:21:06.962Z,100913.89
2023-04-17T05:50:51.560Z,100922.06
2023-04-17T06:05:43.701Z,100919.59
2023-04-17T06:20:36.617Z,100921.61
2023-04-17T06:35:27.370Z,100932.88
2023-04-17T06:50:19.983Z,100936.14
2023-04-17T07:34:58.310Z,100959.35
2023-04-17T09:20:00.752Z,100997.61
2023-04-17T10:04:51.588Z,100983.84
2023-04-17T16:13:21.687Z,100904.73
2023-04-17T16:28:12.963Z,100898.31
2023-04-17T16:43:03.945Z,100904.83
2023-04-17T16:57:57.174Z,100907.41
2023-04-17T17:12:49.920Z,100910.95
2023-04-17T17:27:43.287Z,100922.78
2023-04-17T17:42:36.833Z,100919.70
2023-04-17T17:57:33.012Z,100927.09
2023-04-17T18:12:32.627Z,100930.48
2023-04-17T18:27:20.907Z,100936.62
2023-04-17T18:42:12.012Z,100946.81
2023-04-17T18:57:02.701Z,100960.44
2023-04-17T19:11:53.028Z,100974.03
2023-04-17T19:26:43.845Z,100969.00
2023-04-17T19:41:35.964Z,100978.79
2023-04-17T19:56:26.866Z,100979.75
2023-04-17T20:26:40.321Z,100959.03
2023-04-17T20:41:32.092Z,100957.64
2023-04-17T20:56:26.220Z,100953.03
2023-04-17T21:26:07.131Z,100929.97
2023-04-17T21:40:59.110Z,100945.41
2023-04-17T21:55:51.845Z,100937.55
2023-04-17T22:10:44.302Z,100934.02
2023-04-17T22:25:35.284Z,100928.55
2023-04-17T22:40:26.446Z,100923.66
2023-04-17T22:55:17.329Z,100925.63
2023-04-17T23:10:09.191Z,100923.62
2023-04-17T23:40:06.556Z,100901.53
2023-04-17T23:54:58.986Z,100895.06
